sensor_id;sensor_type;location;lat;lon;timestamp;noise_LAeq;noise_LA_min;noise_LA_max;noise_LA01;noise_LA95
78273;Laerm;67530;52.282;5.972;2023-02-15T00:00:09;40.9;38.5;42.3;;
78273;Laerm;67530;52.282;5.972;2023-02-15T00:00:29;40.6;37.2;42.2;;
78273;Laerm;67530;52.282;5.972;2023-02-15T00:00:49;40.7;37.6;42;;
78273;Laerm;67530;52.282;5.972;2023-02-15T00:01:10;42.2;37.3;49;;
78273;Laerm;67530;52.282;5.972;2023-02-15T00:01:29;40.4;37.6;42.3;;
78273;Laerm;67530;52.282;5.972;2023-02-15T00:01:49;40.4;36.8;42;;
78273;Laerm;67530;52.282;5.972;2023-02-15T00:02:09;40.2;36.7;42.2;;
78273;Laerm;67530;52.282;5.972;2023-02-15T00:02:29;40.2;37.1;41.9;;
78273;Laerm;67530;52.282;5.972;2023-02-15T00:02:49;40;36.3;41.8;;
78273;Laerm;67530;52.282;5.972;2023-02-15T00:03:09;40.7;37.5;42.4;;
78273;Laerm;67530;52.282;5.972;2023-02-15T00:03:29;42.1;38.8;46.2;;
78273;Laerm;67530;52.282;5.972;2023-02-15T00:03:49;39.8;36.4;42;;
78273;Laerm;67530;52.282;5.972;2023-02-15T00:04:11;39.5;35.5;41.8;;
78273;Laerm;67530;52.282;5.972;2023-02-15T00:04:30;39.2;35.8;41.9;;
78273;Laerm;67530;52.282;5.972;2023-02-15T00:04:50;39.5;35.6;41.9;;
78273;Laerm;67530;52.282;5.972;2023-02-15T00:05:10;39.6;35.8;42.2;;
78273;Laerm;67530;52.282;5.972;2023-02-15T00:05:30;39.9;36.5;42.2;;
78273;Laerm;67530;52.282;5.972;2023-02-15T00:05:50;40.2;36.7;41.9;;
78273;Laerm;67530;52.282;5.972;2023-02-15T00:06:10;39.5;35.8;41.9;;
78273;Laerm;67530;52.282;5.972;2023-02-15T00:06:30;40.1;36.7;42.3;;
78273;Laerm;67530;52.282;5.972;2023-02-15T00:06:50;40.8;37.8;42.4;;
78273;Laerm;67530;52.282;5.972;2023-02-15T00:07:10;40.8;37;42.2;;
78273;Laerm;67530;52.282;5.972;2023-02-15T00:07:30;40.6;37.1;42.3;;
78273;Laerm;67530;52.282;5.972;2023-02-15T00:07:50;40.8;37.9;42.2;;
78273;Laerm;67530;52.282;5.972;2023-02-15T00:08:10;40.9;38.6;42.4;;
78273;Laerm;67530;52.282;5.972;2023-02-15T00:08:30;41;38;42.3;;
78273;Laerm;67530;52.282;5.972;2023-02-15T00:08:50;41.2;38.1;42.6;;
78273;Laerm;67530;52.282;5.972;2023-02-15T00:09:10;40.9;37.6;42.6;;
78273;Laerm;67530;52.282;5.972;2023-02-15T00:09:30;40.7;37.2;42.6;;
78273;Laerm;67530;52.282;5.972;2023-02-15T00:09:51;40.6;37.1;42.2;;
78273;Laerm;67530;52.282;5.972;2023-02-15T00:10:11;40.8;37.3;42.3;;
78273;Laerm;67530;52.282;5.972;2023-02-15T00:10:31;40.4;37.1;42.2;;
78273;Laerm;67530;52.282;5.972;2023-02-15T00:10:51;40.8;38;42.3;;
78273;Laerm;67530;52.282;5.972;2023-02-15T00:11:12;40.6;37.9;42.7;;
78273;Laerm;67530;52.282;5.972;2023-02-15T00:11:31;40.7;38.2;42.2;;
78273;Laerm;67530;52.282;5.972;2023-02-15T00:11:51;40.9;38.1;42.3;;
78273;Laerm;67530;52.282;5.972;2023-02-15T00:12:11;41;38;42.6;;
78273;Laerm;67530;52.282;5.972;2023-02-15T00:12:31;40.8;37.6;42.4;;
78273;Laerm;67530;52.282;5.972;2023-02-15T00:12:51;40.6;37.9;42.7;;
78273;Laerm;67530;52.282;5.972;2023-02-15T00:13:11;40.8;37.9;42.3;;
78273;Laerm;67530;52.282;5.972;2023-02-15T00:13:31;42.7;38.1;47.8;;
78273;Laerm;67530;52.282;5.972;2023-02-15T00:13:51;40.5;37.3;42.4;;
78273;Laerm;67530;52.282;5.972;2023-02-15T00:14:12;40.6;37.1;42.5;;
78273;Laerm;67530;52.282;5.972;2023-02-15T00:14:31;40.3;36.8;42.3;;
78273;Laerm;67530;52.282;5.972;2023-02-15T00:14:51;40.5;37.3;42.3;;
78273;Laerm;67530;52.282;5.972;2023-02-15T00:15:11;40.1;36.9;42.6;;
78273;Laerm;67530;52.282;5.972;2023-02-15T00:15:31;40.1;37;42.5;;
78273;Laerm;67530;52.282;5.972;2023-02-15T00:15:52;39.7;36;42.1;;
78273;Laerm;67530;52.282;5.972;2023-02-15T00:16:12;40.3;37;42.2;;
78273;Laerm;67530;52.282;5.972;2023-02-15T00:16:32;40.8;37.1;42.3;;
78273;Laerm;67530;52.282;5.972;2023-02-15T00:16:52;40.5;37.1;42.3;;
78273;Laerm;67530;52.282;5.972;2023-02-15T00:17:12;40.4;36.5;42.4;;
78273;Laerm;67530;52.282;5.972;2023-02-15T00:17:32;40.4;36.8;42.4;;
78273;Laerm;67530;52.282;5.972;2023-02-15T00:17:52;40.5;37.5;42.4;;
78273;Laerm;67530;52.282;5.972;2023-02-15T00:18:12;40.4;37.4;42.7;;
78273;Laerm;67530;52.282;5.972;2023-02-15T00:18:32;40.3;37.5;42.2;;
78273;Laerm;67530;52.282;5.972;2023-02-15T00:18:52;40.2;37.3;42.2;;
78273;Laerm;67530;52.282;5.972;2023-02-15T00:19:13;39.7;36.3;41.9;;
78273;Laerm;67530;52.282;5.972;2023-02-15T00:19:32;39.9;36.3;42.2;;
78273;Laerm;67530;52.282;5.972;2023-02-15T00:19:52;40;37;42.3;;
78273;Laerm;67530;52.282;5.972;2023-02-15T00:20:12;40.3;36.4;42.1;;
78273;Laerm;67530;52.282;5.972;2023-02-15T00:20:32;40.6;36.8;42.6;;
78273;Laerm;67530;52.282;5.972;2023-02-15T00:20:52;40.5;37.1;42.7;;
78273;Laerm;67530;52.282;5.972;2023-02-15T00:21:13;40.7;37.2;42.2;;
78273;Laerm;67530;52.282;5.972;2023-02-15T00:21:33;40.6;37.2;42.3;;
78273;Laerm;67530;52.282;5.972;2023-02-15T00:21:53;40.2;36.5;42.6;;
78273;Laerm;67530;52.282;5.972;2023-02-15T00:22:13;39.8;35.7;42.4;;
78273;Laerm;67530;52.282;5.972;2023-02-15T00:22:33;40.6;36.7;42.9;;
78273;Laerm;67530;52.282;5.972;2023-02-15T00:22:53;40.6;37.6;42.6;;
78273;Laerm;67530;52.282;5.972;2023-02-15T00:23:13;40.8;37.1;42.8;;
78273;Laerm;67530;52.282;5.972;2023-02-15T00:23:33;40.8;37.3;43;;
78273;Laerm;67530;52.282;5.972;2023-02-15T00:23:53;40.8;36.8;43.1;;
78273;Laerm;67530;52.282;5.972;2023-02-15T00:24:14;41.3;38.1;43.1;;
78273;Laerm;67530;52.282;5.972;2023-02-15T00:24:33;41.3;38.1;43.4;;
78273;Laerm;67530;52.282;5.972;2023-02-15T00:24:53;40.7;37;43.2;;
78273;Laerm;67530;52.282;5.972;2023-02-15T00:25:13;41.3;37.1;42.9;;
78273;Laerm;67530;52.282;5.972;2023-02-15T00:25:33;41.3;38;43.4;;
78273;Laerm;67530;52.282;5.972;2023-02-15T00:26:02;41.6;38.1;43.4;;
78273;Laerm;67530;52.282;5.972;2023-02-15T00:26:13;41.6;37.6;43.3;;
78273;Laerm;67530;52.282;5.972;2023-02-15T00:26:33;41.8;38.2;43.4;;
78273;Laerm;67530;52.282;5.972;2023-02-15T00:26:54;41.7;37.7;43.4;;
78273;Laerm;67530;52.282;5.972;2023-02-15T00:27:14;41.1;37.8;43.2;;
78273;Laerm;67530;52.282;5.972;2023-02-15T00:27:34;41.2;37.4;43.3;;
78273;Laerm;67530;52.282;5.972;2023-02-15T00:27:54;41.4;37.9;43.6;;
78273;Laerm;67530;52.282;5.972;2023-02-15T00:28:14;41.5;38.2;43.5;;
78273;Laerm;67530;52.282;5.972;2023-02-15T00:28:34;41.7;38.4;43.5;;
78273;Laerm;67530;52.282;5.972;2023-02-15T00:28:54;42;38.3;44;;
78273;Laerm;67530;52.282;5.972;2023-02-15T00:29:14;42.1;38.9;44;;
78273;Laerm;67530;52.282;5.972;2023-02-15T00:29:34;42.1;38.7;43.8;;
78273;Laerm;67530;52.282;5.972;2023-02-15T00:29:54;41.8;38.3;43.7;;
78273;Laerm;67530;52.282;5.972;2023-02-15T00:30:14;41.5;38.4;43.7;;
78273;Laerm;67530;52.282;5.972;2023-02-15T00:30:34;43.1;39.2;46.8;;
78273;Laerm;67530;52.282;5.972;2023-02-15T00:30:54;41.8;38.6;43.9;;
78273;Laerm;67530;52.282;5.972;2023-02-15T00:31:14;41.2;37.2;43.8;;
78273;Laerm;67530;52.282;5.972;2023-02-15T00:31:34;42;38.9;44;;
78273;Laerm;67530;52.282;5.972;2023-02-15T00:31:54;41.8;37.6;44.2;;
78273;Laerm;67530;52.282;5.972;2023-02-15T00:32:15;42.2;37.8;44;;
78273;Laerm;67530;52.282;5.972;2023-02-15T00:32:35;42.6;39.9;44.4;;
78273;Laerm;67530;52.282;5.972;2023-02-15T00:32:55;41.7;38.4;44.3;;
78273;Laerm;67530;52.282;5.972;2023-02-15T00:33:15;41.9;38.4;44;;
78273;Laerm;67530;52.282;5.972;2023-02-15T00:33:35;42.5;38.9;44;;
78273;Laerm;67530;52.282;5.972;2023-02-15T00:33:55;42.2;38.6;44.2;;
78273;Laerm;67530;52.282;5.972;2023-02-15T00:34:16;42.2;38.9;44.2;;
78273;Laerm;67530;52.282;5.972;2023-02-15T00:34:35;42;38;44.4;;
78273;Laerm;67530;52.282;5.972;2023-02-15T00:34:55;42.4;39;44.4;;
78273;Laerm;67530;52.282;5.972;2023-02-15T00:35:15;42.6;38.6;44.4;;
78273;Laerm;67530;52.282;5.972;2023-02-15T00:35:35;42.2;38.2;44.1;;
78273;Laerm;67530;52.282;5.972;2023-02-15T00:35:55;42.1;38;44.2;;
78273;Laerm;67530;52.282;5.972;2023-02-15T00:36:16;42.5;39.2;44.2;;
78273;Laerm;67530;52.282;5.972;2023-02-15T00:36:35;42.5;38.7;44.2;;
78273;Laerm;67530;52.282;5.972;2023-02-15T00:36:55;42.7;38.7;44.3;;
78273;Laerm;67530;52.282;5.972;2023-02-15T00:37:15;42.7;38.3;44.3;;
78273;Laerm;67530;52.282;5.972;2023-02-15T00:37:35;42.7;38.7;44.3;;
78273;Laerm;67530;52.282;5.972;2023-02-15T00:37:56;42.8;39.3;44.4;;
78273;Laerm;67530;52.282;5.972;2023-02-15T00:38:16;42.7;38.8;44.4;;
78273;Laerm;67530;52.282;5.972;2023-02-15T00:38:36;43;39.3;44.4;;
78273;Laerm;67530;52.282;5.972;2023-02-15T00:38:56;43;39.5;44.4;;
78273;Laerm;67530;52.282;5.972;2023-02-15T00:39:16;43;39.4;44.6;;
78273;Laerm;67530;52.282;5.972;2023-02-15T00:39:36;42.8;38.6;44.4;;
78273;Laerm;67530;52.282;5.972;2023-02-15T00:39:56;43.2;39.4;44.3;;
78273;Laerm;67530;52.282;5.972;2023-02-15T00:40:16;43.3;40.2;44.4;;
78273;Laerm;67530;52.282;5.972;2023-02-15T00:40:36;43.2;39.4;44.6;;
78273;Laerm;67530;52.282;5.972;2023-02-15T00:40:57;43.2;39.9;44.8;;
78273;Laerm;67530;52.282;5.972;2023-02-15T00:41:16;43.2;39.4;44.6;;
78273;Laerm;67530;52.282;5.972;2023-02-15T00:41:37;43.2;39.8;44.8;;
78273;Laerm;67530;52.282;5.972;2023-02-15T00:41:56;43.1;40.2;44.5;;
78273;Laerm;67530;52.282;5.972;2023-02-15T00:42:16;43.1;39.3;44.6;;
78273;Laerm;67530;52.282;5.972;2023-02-15T00:42:36;43;39.7;44.3;;
78273;Laerm;67530;52.282;5.972;2023-02-15T00:42:56;43;39.1;44.5;;
78273;Laerm;67530;52.282;5.972;2023-02-15T00:43:16;42.9;39.5;44.4;;
78273;Laerm;67530;52.282;5.972;2023-02-15T00:43:37;42.9;40.1;44.4;;
78273;Laerm;67530;52.282;5.972;2023-02-15T00:43:57;42.7;38.5;44.2;;
78273;Laerm;67530;52.282;5.972;2023-02-15T00:44:17;42.6;37.9;44.5;;
78273;Laerm;67530;52.282;5.972;2023-02-15T00:44:37;42.7;39;44.1;;
78273;Laerm;67530;52.282;5.972;2023-02-15T00:44:57;43;39.9;44.4;;
78273;Laerm;67530;52.282;5.972;2023-02-15T00:45:17;43.1;39.7;44.8;;
78273;Laerm;67530;52.282;5.972;2023-02-15T00:45:37;43;38.4;46.4;;
78273;Laerm;67530;52.282;5.972;2023-02-15T00:45:57;42.7;38.9;44.4;;
78273;Laerm;67530;52.282;5.972;2023-02-15T00:46:17;42.9;39;44.4;;
78273;Laerm;67530;52.282;5.972;2023-02-15T00:46:37;42.8;39.1;44.1;;
78273;Laerm;67530;52.282;5.972;2023-02-15T00:46:57;42.9;39.7;44.4;;
78273;Laerm;67530;52.282;5.972;2023-02-15T00:47:17;42.9;39.1;44.2;;
78273;Laerm;67530;52.282;5.972;2023-02-15T00:47:37;43.6;39.3;47.5;;
78273;Laerm;67530;52.282;5.972;2023-02-15T00:47:57;42.7;38.8;44.3;;
78273;Laerm;67530;52.282;5.972;2023-02-15T00:48:18;42.8;40;44.5;;
78273;Laerm;67530;52.282;5.972;2023-02-15T00:48:37;42.3;38.4;44.2;;
78273;Laerm;67530;52.282;5.972;2023-02-15T00:48:58;42.5;39.2;44.3;;
78273;Laerm;67530;52.282;5.972;2023-02-15T00:49:18;42.5;39.5;44.4;;
78273;Laerm;67530;52.282;5.972;2023-02-15T00:49:38;42.6;38.2;44.5;;
78273;Laerm;67530;52.282;5.972;2023-02-15T00:49:58;42.5;39.3;44.6;;
78273;Laerm;67530;52.282;5.972;2023-02-15T00:50:18;42.6;38.6;44.1;;
78273;Laerm;67530;52.282;5.972;2023-02-15T00:50:38;42.7;39.1;44.2;;
78273;Laerm;67530;52.282;5.972;2023-02-15T00:50:58;42.7;39;44.2;;
78273;Laerm;67530;52.282;5.972;2023-02-15T00:51:18;42.8;39.5;44.4;;
78273;Laerm;67530;52.282;5.972;2023-02-15T00:51:38;42.7;39.5;44.2;;
78273;Laerm;67530;52.282;5.972;2023-02-15T00:51:58;42.8;37.9;44.3;;
78273;Laerm;67530;52.282;5.972;2023-02-15T00:52:18;42.8;39.7;44.4;;
78273;Laerm;67530;52.282;5.972;2023-02-15T00:52:38;42.9;39.4;44.5;;
78273;Laerm;67530;52.282;5.972;2023-02-15T00:52:58;42.6;38.5;44.4;;
78273;Laerm;67530;52.282;5.972;2023-02-15T00:53:18;43.1;40;44.3;;
78273;Laerm;67530;52.282;5.972;2023-02-15T00:53:38;43;38.8;44.3;;
78273;Laerm;67530;52.282;5.972;2023-02-15T00:53:59;43.1;40.1;44.4;;
78273;Laerm;67530;52.282;5.972;2023-02-15T00:54:18;43;39.7;44.4;;
78273;Laerm;67530;52.282;5.972;2023-02-15T00:54:39;43;39.4;44.7;;
78273;Laerm;67530;52.282;5.972;2023-02-15T00:54:59;42.8;39.4;44.4;;
78273;Laerm;67530;52.282;5.972;2023-02-15T00:55:19;42.8;38.7;44.5;;
78273;Laerm;67530;52.282;5.972;2023-02-15T00:55:39;42.8;39.5;44.2;;
78273;Laerm;67530;52.282;5.972;2023-02-15T00:55:59;43.8;39.5;47.6;;
78273;Laerm;67530;52.282;5.972;2023-02-15T00:56:19;43.1;39.9;44.5;;
78273;Laerm;67530;52.282;5.972;2023-02-15T00:56:39;42.9;38.7;44.3;;
78273;Laerm;67530;52.282;5.972;2023-02-15T00:56:59;42.9;39.6;44.2;;
78273;Laerm;67530;52.282;5.972;2023-02-15T00:57:19;42.7;38.4;44.3;;
78273;Laerm;67530;52.282;5.972;2023-02-15T00:57:39;42.8;39;44;;
78273;Laerm;67530;52.282;5.972;2023-02-15T00:57:59;42.8;39.3;44.6;;
78273;Laerm;67530;52.282;5.972;2023-02-15T00:58:19;42.9;39.9;44.3;;
78273;Laerm;67530;52.282;5.972;2023-02-15T00:58:39;42.7;39.2;44.2;;
78273;Laerm;67530;52.282;5.972;2023-02-15T00:58:59;42.8;39.1;44.1;;
78273;Laerm;67530;52.282;5.972;2023-02-15T00:59:19;42.8;39.3;44.4;;
78273;Laerm;67530;52.282;5.972;2023-02-15T00:59:39;42.8;39.6;44.3;;
78273;Laerm;67530;52.282;5.972;2023-02-15T00:59:59;42.7;39;44.2;;
78273;Laerm;67530;52.282;5.972;2023-02-15T01:00:20;42.7;39.8;44.2;;
78273;Laerm;67530;52.282;5.972;2023-02-15T01:00:40;44.1;39.9;48.6;;
78273;Laerm;67530;52.282;5.972;2023-02-15T01:01:02;42.2;38.3;44;;
78273;Laerm;67530;52.282;5.972;2023-02-15T01:01:20;42.2;38.7;44;;
78273;Laerm;67530;52.282;5.972;2023-02-15T01:01:40;42.3;38.1;44.1;;
78273;Laerm;67530;52.282;5.972;2023-02-15T01:02:00;42.4;38.3;43.9;;
78273;Laerm;67530;52.282;5.972;2023-02-15T01:02:20;42.5;38.6;44.1;;
78273;Laerm;67530;52.282;5.972;2023-02-15T01:02:40;42.6;38.1;44.3;;
78273;Laerm;67530;52.282;5.972;2023-02-15T01:03:00;42.5;39;43.9;;
78273;Laerm;67530;52.282;5.972;2023-02-15T01:03:20;42.5;38.7;44.3;;
78273;Laerm;67530;52.282;5.972;2023-02-15T01:03:40;42.4;38.3;44;;
78273;Laerm;67530;52.282;5.972;2023-02-15T01:04:01;42.5;38.4;43.9;;
78273;Laerm;67530;52.282;5.972;2023-02-15T01:04:20;42.5;39.1;44.2;;
78273;Laerm;67530;52.282;5.972;2023-02-15T01:04:40;42.4;39.4;44.1;;
78273;Laerm;67530;52.282;5.972;2023-02-15T01:05:00;42.4;39.5;44.1;;
78273;Laerm;67530;52.282;5.972;2023-02-15T01:05:20;42.6;38.6;44.1;;
78273;Laerm;67530;52.282;5.972;2023-02-15T01:05:40;42.5;39.7;43.8;;
78273;Laerm;67530;52.282;5.972;2023-02-15T01:06:01;42.3;39.3;43.6;;
78273;Laerm;67530;52.282;5.972;2023-02-15T01:06:21;42.3;39.1;43.5;;
78273;Laerm;67530;52.282;5.972;2023-02-15T01:06:41;42.2;39;43.7;;
78273;Laerm;67530;52.282;5.972;2023-02-15T01:07:01;42;37.8;43.7;;
78273;Laerm;67530;52.282;5.972;2023-02-15T01:07:21;42.4;38.6;43.8;;
78273;Laerm;67530;52.282;5.972;2023-02-15T01:07:41;42.3;38.3;43.6;;
78273;Laerm;67530;52.282;5.972;2023-02-15T01:08:01;42.4;39;43.6;;
78273;Laerm;67530;52.282;5.972;2023-02-15T01:08:21;42.2;38.5;43.8;;
78273;Laerm;67530;52.282;5.972;2023-02-15T01:08:41;42.3;38.2;43.6;;
78273;Laerm;67530;52.282;5.972;2023-02-15T01:09:01;42.4;39.2;43.6;;
78273;Laerm;67530;52.282;5.972;2023-02-15T01:09:21;42.4;38.8;43.6;;
78273;Laerm;67530;52.282;5.972;2023-02-15T01:09:41;42.3;39.2;43.7;;
78273;Laerm;67530;52.282;5.972;2023-02-15T01:10:01;42.4;39.1;43.7;;
78273;Laerm;67530;52.282;5.972;2023-02-15T01:10:21;42.3;39;43.7;;
78273;Laerm;67530;52.282;5.972;2023-02-15T01:10:41;42.2;38.1;43.6;;
78273;Laerm;67530;52.282;5.972;2023-02-15T01:11:03;42.1;38.5;43.6;;
78273;Laerm;67530;52.282;5.972;2023-02-15T01:11:22;42.1;39;43.9;;
78273;Laerm;67530;52.282;5.972;2023-02-15T01:11:42;41.7;37.9;43.6;;
78273;Laerm;67530;52.282;5.972;2023-02-15T01:12:02;41.8;37.7;43.8;;
78273;Laerm;67530;52.282;5.972;2023-02-15T01:12:22;41.8;38.1;43.5;;
78273;Laerm;67530;52.282;5.972;2023-02-15T01:12:42;41.8;37.3;43.5;;
78273;Laerm;67530;52.282;5.972;2023-02-15T01:13:02;42;37.5;43.7;;
78273;Laerm;67530;52.282;5.972;2023-02-15T01:13:22;41.8;38.6;43.5;;
78273;Laerm;67530;52.282;5.972;2023-02-15T01:13:42;42;38.8;43.4;;
78273;Laerm;67530;52.282;5.972;2023-02-15T01:14:02;42.2;37.8;43.6;;
78273;Laerm;67530;52.282;5.972;2023-02-15T01:14:22;42.1;38.7;43.4;;
78273;Laerm;67530;52.282;5.972;2023-02-15T01:14:42;42.1;38.6;43.4;;
78273;Laerm;67530;52.282;5.972;2023-02-15T01:15:02;41.8;37.9;43.5;;
78273;Laerm;67530;52.282;5.972;2023-02-15T01:15:23;41.6;38.5;43.3;;
78273;Laerm;67530;52.282;5.972;2023-02-15T01:15:42;41.5;37.8;43.2;;
78273;Laerm;67530;52.282;5.972;2023-02-15T01:16:03;41.4;37.9;43.4;;
78273;Laerm;67530;52.282;5.972;2023-02-15T01:16:23;40.8;37;43.2;;
78273;Laerm;67530;52.282;5.972;2023-02-15T01:16:42;41.9;38;43.2;;
78273;Laerm;67530;52.282;5.972;2023-02-15T01:17:03;41.7;38.3;43.1;;
78273;Laerm;67530;52.282;5.972;2023-02-15T01:17:23;41.8;38.4;43.2;;
78273;Laerm;67530;52.282;5.972;2023-02-15T01:17:43;41.8;38.5;43.4;;
78273;Laerm;67530;52.282;5.972;2023-02-15T01:18:03;41.9;38.9;43.3;;
78273;Laerm;67530;52.282;5.972;2023-02-15T01:18:23;41.5;38.5;43.2;;
78273;Laerm;67530;52.282;5.972;2023-02-15T01:18:43;41.6;37.6;43.1;;
78273;Laerm;67530;52.282;5.972;2023-02-15T01:19:03;41.6;37.8;43.2;;
78273;Laerm;67530;52.282;5.972;2023-02-15T01:19:23;41.2;37.6;43.4;;
78273;Laerm;67530;52.282;5.972;2023-02-15T01:19:43;40.9;35.9;43.2;;
78273;Laerm;67530;52.282;5.972;2023-02-15T01:20:03;40.9;37.6;43.1;;
78273;Laerm;67530;52.282;5.972;2023-02-15T01:20:24;41.2;37.5;43.3;;
78273;Laerm;67530;52.282;5.972;2023-02-15T01:20:43;41.3;37.1;43.1;;
78273;Laerm;67530;52.282;5.972;2023-02-15T01:21:11;41.6;38.3;43.3;;
78273;Laerm;67530;52.282;5.972;2023-02-15T01:21:24;41.7;37.7;43.1;;
78273;Laerm;67530;52.282;5.972;2023-02-15T01:21:43;41.6;38;43.5;;
78273;Laerm;67530;52.282;5.972;2023-02-15T01:22:03;41.6;38.4;43.2;;
78273;Laerm;67530;52.282;5.972;2023-02-15T01:22:24;41.7;37.9;43.2;;
78273;Laerm;67530;52.282;5.972;2023-02-15T01:22:44;41.5;37.6;43.2;;
78273;Laerm;67530;52.282;5.972;2023-02-15T01:23:04;41.3;37.8;43.3;;
78273;Laerm;67530;52.282;5.972;2023-02-15T01:23:24;41.5;38.1;43.2;;
78273;Laerm;67530;52.282;5.972;2023-02-15T01:23:44;41.6;38.2;43;;
78273;Laerm;67530;52.282;5.972;2023-02-15T01:24:04;41.7;37.6;43.1;;
78273;Laerm;67530;52.282;5.972;2023-02-15T01:24:24;41.5;38;43.3;;
78273;Laerm;67530;52.282;5.972;2023-02-15T01:24:44;41.6;37.8;43.4;;
78273;Laerm;67530;52.282;5.972;2023-02-15T01:25:04;42.8;38.1;49;;
78273;Laerm;67530;52.282;5.972;2023-02-15T01:25:24;41.2;37.4;43.1;;
78273;Laerm;67530;52.282;5.972;2023-02-15T01:25:44;41.5;37.7;43.2;;
78273;Laerm;67530;52.282;5.972;2023-02-15T01:26:04;41.9;37.7;43.2;;
78273;Laerm;67530;52.282;5.972;2023-02-15T01:26:24;42.1;39;43.2;;
78273;Laerm;67530;52.282;5.972;2023-02-15T01:26:44;41.9;38.1;43.5;;
78273;Laerm;67530;52.282;5.972;2023-02-15T01:27:04;41.9;38.8;43.6;;
78273;Laerm;67530;52.282;5.972;2023-02-15T01:27:24;41.9;38.5;43.4;;
78273;Laerm;67530;52.282;5.972;2023-02-15T01:27:45;41.9;38.7;43.5;;
78273;Laerm;67530;52.282;5.972;2023-02-15T01:28:05;42.2;38.5;43.4;;
78273;Laerm;67530;52.282;5.972;2023-02-15T01:28:25;42.2;38.4;43.6;;
78273;Laerm;67530;52.282;5.972;2023-02-15T01:28:45;42;38.1;43.9;;
78273;Laerm;67530;52.282;5.972;2023-02-15T01:29:05;42;39.2;43.5;;
78273;Laerm;67530;52.282;5.972;2023-02-15T01:29:25;42.2;39.1;44;;
78273;Laerm;67530;52.282;5.972;2023-02-15T01:29:45;42.2;38.8;43.7;;
78273;Laerm;67530;52.282;5.972;2023-02-15T01:30:05;42.4;39.3;43.8;;
78273;Laerm;67530;52.282;5.972;2023-02-15T01:30:25;42.6;38.7;43.8;;
78273;Laerm;67530;52.282;5.972;2023-02-15T01:30:45;42.5;39;44;;
78273;Laerm;67530;52.282;5.972;2023-02-15T01:31:06;42.3;38.6;44.1;;
78273;Laerm;67530;52.282;5.972;2023-02-15T01:31:25;42.5;38.6;43.8;;
78273;Laerm;67530;52.282;5.972;2023-02-15T01:31:45;42.3;39.1;43.5;;
78273;Laerm;67530;52.282;5.972;2023-02-15T01:32:05;42.1;39;43.8;;
78273;Laerm;67530;52.282;5.972;2023-02-15T01:32:25;42.3;38.9;43.6;;
78273;Laerm;67530;52.282;5.972;2023-02-15T01:32:45;42.4;39.7;43.7;;
78273;Laerm;67530;52.282;5.972;2023-02-15T01:33:05;42.4;39.5;43.7;;
78273;Laerm;67530;52.282;5.972;2023-02-15T01:33:25;42.3;39.1;43.7;;
78273;Laerm;67530;52.282;5.972;2023-02-15T01:33:46;42.4;39;43.7;;
78273;Laerm;67530;52.282;5.972;2023-02-15T01:34:06;42.2;39.1;43.8;;
78273;Laerm;67530;52.282;5.972;2023-02-15T01:34:26;42.2;39.2;43.9;;
78273;Laerm;67530;52.282;5.972;2023-02-15T01:34:46;42.2;38.8;43.8;;
78273;Laerm;67530;52.282;5.972;2023-02-15T01:35:06;42.2;39;43.8;;
78273;Laerm;67530;52.282;5.972;2023-02-15T01:35:26;42.1;38.4;43.5;;
78273;Laerm;67530;52.282;5.972;2023-02-15T01:35:46;42;38.5;43.7;;
78273;Laerm;67530;52.282;5.972;2023-02-15T01:36:06;42;38.6;43.4;;
78273;Laerm;67530;52.282;5.972;2023-02-15T01:36:26;41.7;38.3;43.7;;
78273;Laerm;67530;52.282;5.972;2023-02-15T01:36:46;41.3;38.4;43.4;;
78273;Laerm;67530;52.282;5.972;2023-02-15T01:37:06;41.7;37.7;43.2;;
78273;Laerm;67530;52.282;5.972;2023-02-15T01:37:26;41.6;38.8;43.5;;
78273;Laerm;67530;52.282;5.972;2023-02-15T01:37:46;42;38.1;43.4;;
78273;Laerm;67530;52.282;5.972;2023-02-15T01:38:06;41.9;38.7;43.4;;
78273;Laerm;67530;52.282;5.972;2023-02-15T01:38:26;41.8;38.4;43.8;;
78273;Laerm;67530;52.282;5.972;2023-02-15T01:38:46;41.7;38.4;43.4;;
78273;Laerm;67530;52.282;5.972;2023-02-15T01:39:06;41.8;37.6;43.3;;
78273;Laerm;67530;52.282;5.972;2023-02-15T01:39:27;41.3;37.7;43.3;;
78273;Laerm;67530;52.282;5.972;2023-02-15T01:39:47;40.8;37;43;;
78273;Laerm;67530;52.282;5.972;2023-02-15T01:40:08;41;37;43.2;;
78273;Laerm;67530;52.282;5.972;2023-02-15T01:40:27;41.2;37.4;43.2;;
78273;Laerm;67530;52.282;5.972;2023-02-15T01:40:47;41.7;38.8;43.3;;
78273;Laerm;67530;52.282;5.972;2023-02-15T01:41:07;41.9;37.7;43.7;;
78273;Laerm;67530;52.282;5.972;2023-02-15T01:41:27;41.5;38.1;43.2;;
78273;Laerm;67530;52.282;5.972;2023-02-15T01:41:47;41.6;37.5;43.4;;
78273;Laerm;67530;52.282;5.972;2023-02-15T01:42:07;41.8;38;43.5;;
78273;Laerm;67530;52.282;5.972;2023-02-15T01:42:27;41.7;37.6;43.2;;
78273;Laerm;67530;52.282;5.972;2023-02-15T01:42:49;41.7;37.9;43.3;;
78273;Laerm;67530;52.282;5.972;2023-02-15T01:43:09;41.5;38;43.3;;
78273;Laerm;67530;52.282;5.972;2023-02-15T01:43:38;41.7;37.6;43.4;;
78273;Laerm;67530;52.282;5.972;2023-02-15T01:43:48;41.7;38.3;43.2;;
78273;Laerm;67530;52.282;5.972;2023-02-15T01:44:44;41.8;38.4;43.3;;
78273;Laerm;67530;52.282;5.972;2023-02-15T01:44:49;41.8;38.6;43.1;;
78273;Laerm;67530;52.282;5.972;2023-02-15T01:45:00;41.8;38.2;43.2;;
78273;Laerm;67530;52.282;5.972;2023-02-15T01:45:14;41.8;39;43.1;;
78273;Laerm;67530;52.282;5.972;2023-02-15T01:45:29;41.5;38.1;43.3;;
78273;Laerm;67530;52.282;5.972;2023-02-15T01:45:48;41.4;37.8;43.3;;
78273;Laerm;67530;52.282;5.972;2023-02-15T01:46:08;41.2;37.6;43.3;;
78273;Laerm;67530;52.282;5.972;2023-02-15T01:46:28;41.4;37.3;43.3;;
78273;Laerm;67530;52.282;5.972;2023-02-15T01:46:49;41.4;37.2;43.4;;
78273;Laerm;67530;52.282;5.972;2023-02-15T01:47:08;43.2;38.8;46.4;;
78273;Laerm;67530;52.282;5.972;2023-02-15T01:47:30;41.7;38.2;43.2;;
78273;Laerm;67530;52.282;5.972;2023-02-15T01:47:50;41.7;38;43.6;;
78273;Laerm;67530;52.282;5.972;2023-02-15T01:48:12;41.8;38;43.2;;
78273;Laerm;67530;52.282;5.972;2023-02-15T01:48:28;41.9;38.6;43.1;;
78273;Laerm;67530;52.282;5.972;2023-02-15T01:48:50;41.8;38.2;43.3;;
78273;Laerm;67530;52.282;5.972;2023-02-15T01:49:09;41.8;38.8;43.3;;
78273;Laerm;67530;52.282;5.972;2023-02-15T01:49:28;41.7;39.2;43.1;;
78273;Laerm;67530;52.282;5.972;2023-02-15T01:49:58;41.8;38;43.1;;
78273;Laerm;67530;52.282;5.972;2023-02-15T01:50:10;41.6;37.4;43.1;;
78273;Laerm;67530;52.282;5.972;2023-02-15T01:50:29;41.4;37.9;43.1;;
78273;Laerm;67530;52.282;5.972;2023-02-15T01:50:50;41;38;42.8;;
78273;Laerm;67530;52.282;5.972;2023-02-15T01:51:09;40.6;37.3;43.1;;
78273;Laerm;67530;52.282;5.972;2023-02-15T01:51:29;41.5;37.6;43.1;;
78273;Laerm;67530;52.282;5.972;2023-02-15T01:51:49;41.6;38.3;43;;
78273;Laerm;67530;52.282;5.972;2023-02-15T01:52:09;41.5;38;43.1;;
78273;Laerm;67530;52.282;5.972;2023-02-15T01:52:29;41.5;36.9;43;;
78273;Laerm;67530;52.282;5.972;2023-02-15T01:52:50;41.5;38;43;;
78273;Laerm;67530;52.282;5.972;2023-02-15T01:53:12;41.5;38.2;42.9;;
78273;Laerm;67530;52.282;5.972;2023-02-15T01:53:31;41.5;37.8;43;;
78273;Laerm;67530;52.282;5.972;2023-02-15T01:53:50;41.4;36.9;42.8;;
78273;Laerm;67530;52.282;5.972;2023-02-15T01:54:10;41.6;38;43.1;;
78273;Laerm;67530;52.282;5.972;2023-02-15T01:54:30;41.4;38.4;43.5;;
78273;Laerm;67530;52.282;5.972;2023-02-15T01:54:49;41.6;37.7;43.4;;
78273;Laerm;67530;52.282;5.972;2023-02-15T01:55:09;41.7;38.4;43.2;;
78273;Laerm;67530;52.282;5.972;2023-02-15T01:55:30;41.7;39.1;43;;
78273;Laerm;67530;52.282;5.972;2023-02-15T01:55:50;40.7;37.7;43;;
78273;Laerm;67530;52.282;5.972;2023-02-15T01:56:11;41.8;38.7;43;;
78273;Laerm;67530;52.282;5.972;2023-02-15T01:56:31;41.6;38.3;42.9;;
78273;Laerm;67530;52.282;5.972;2023-02-15T01:56:50;41.6;38.7;43;;
78273;Laerm;67530;52.282;5.972;2023-02-15T01:57:10;41.6;38.6;43.1;;
78273;Laerm;67530;52.282;5.972;2023-02-15T01:57:30;41.5;37.8;43;;
78273;Laerm;67530;52.282;5.972;2023-02-15T01:57:50;41.6;37.6;43.2;;
78273;Laerm;67530;52.282;5.972;2023-02-15T01:58:10;41.7;38.4;43.2;;